createdAt,value
2023-02-02T00:01:31.805Z,100289.56
2023-02-02T00:03:59.087Z,100287.06
2023-02-02T00:06:28.488Z,100286.22
2023-02-02T00:09:01.051Z,100292.09
2023-02-02T00:11:28.677Z,100293.81
2023-02-02T00:13:55.503Z,100285.38
2023-02-02T00:16:28.332Z,100284.56
2023-02-02T00:19:01.360Z,100288.75
2023-02-02T00:21:28.802Z,100282.88
2023-02-02T00:23:55.968Z,100289.63
2023-02-02T00:26:23.246Z,100287.94
2023-02-02T00:28:50.099Z,100290.47
2023-02-02T00:31:16.953Z,100280.41
2023-02-02T00:33:48.762Z,100280.38
2023-02-02T00:36:17.134Z,100278.66
2023-02-02T00:38:44.074Z,100275.28
2023-02-02T00:41:10.986Z,100276.13
2023-02-02T00:43:37.725Z,100277.00
2023-02-02T00:46:04.814Z,100280.41
2023-02-02T00:48:31.659Z,100270.28
2023-02-02T00:50:58.435Z,100266.06
2023-02-02T00:53:25.216Z,100271.13
2023-02-02T00:55:51.945Z,100266.91
2023-02-02T00:58:18.651Z,100264.38
2023-02-02T01:00:45.438Z,100268.59
2023-02-02T01:03:13.268Z,100267.78
2023-02-02T01:05:40.213Z,100272.81
2023-02-02T01:08:07.487Z,100275.34
2023-02-02T01:10:35.630Z,100271.94
2023-02-02T01:13:02.872Z,100269.44
2023-02-02T01:15:30.543Z,100265.19
2023-02-02T01:17:58.014Z,100264.34
2023-02-02T01:20:25.713Z,100265.19
2023-02-02T01:22:52.526Z,100285.47
2023-02-02T01:25:19.359Z,100273.66
2023-02-02T01:27:46.041Z,100272.84
2023-02-02T01:30:13.226Z,100272.03
2023-02-02T01:32:39.936Z,100276.22
2023-02-02T01:35:07.394Z,100276.22
2023-02-02T01:37:34.122Z,100275.41
2023-02-02T01:40:00.860Z,100288.06
2023-02-02T01:42:27.715Z,100275.41
2023-02-02T01:45:20.916Z,100283.88
2023-02-02T01:47:57.640Z,100288.06
2023-02-02T01:50:32.484Z,100289.75
2023-02-02T01:53:04.022Z,100291.44
2023-02-02T01:55:34.521Z,100306.66
2023-02-02T01:58:09.234Z,100290.63
2023-02-02T02:00:39.503Z,100302.47
2023-02-02T02:03:12.305Z,100306.66
2023-02-02T02:05:47.362Z,100309.19
2023-02-02T02:08:20.343Z,100299.06
2023-02-02T02:10:47.376Z,100292.34
2023-02-02T02:13:16.163Z,100296.59
2023-02-02T02:16:20.141Z,100294.88
2023-02-02T02:19:13.496Z,100294.88
2023-02-02T02:22:23.683Z,100296.53
2023-02-02T02:25:58.615Z,100293.16
2023-02-02T02:29:01.967Z,100284.69
2023-02-02T02:32:08.802Z,100273.69
2023-02-02T02:35:20.355Z,100284.66
2023-02-02T02:37:51.566Z,100284.63
2023-02-02T02:40:28.499Z,100291.41
2023-02-02T02:43:06.499Z,100280.47
2023-02-02T02:45:34.672Z,100275.41
2023-02-02T02:48:03.439Z,100288.09
2023-02-02T02:50:30.432Z,100288.94
2023-02-02T02:53:08.345Z,100289.00
2023-02-02T02:56:01.619Z,100286.47
2023-02-02T02:59:16.569Z,100285.59
2023-02-02T03:02:05.515Z,100290.63
2023-02-02T03:04:57.712Z,100296.53
2023-02-02T03:07:34.944Z,100300.75
2023-02-02T03:10:05.790Z,100297.34
2023-02-02T03:12:32.526Z,100306.66
2023-02-02T03:14:59.254Z,100299.09
2023-02-02T03:17:28.086Z,100304.19
2023-02-02T03:19:54.769Z,100300.81
2023-02-02T03:22:21.455Z,100296.59
2023-02-02T03:24:48.157Z,100303.34
2023-02-02T03:27:14.865Z,100301.69
2023-02-02T03:29:41.583Z,100301.69
2023-02-02T03:32:08.294Z,100310.97
2023-02-02T03:34:35.109Z,100305.03
2023-02-02T03:37:01.818Z,100305.03
2023-02-02T03:39:28.514Z,100306.75
2023-02-02T03:41:55.652Z,100308.44
2023-02-02T03:44:22.344Z,100311.00
2023-02-02T03:46:49.075Z,100312.69
2023-02-02T03:49:15.808Z,100312.69
2023-02-02T03:51:44.236Z,100318.59
2023-02-02T03:54:10.950Z,100322.81
2023-02-02T03:56:37.682Z,100317.75
2023-02-02T03:59:04.611Z,100313.53
2023-02-02T04:01:31.754Z,100322.81
2023-02-02T04:03:59.077Z,100321.94
2023-02-02T04:06:26.649Z,100319.41
2023-02-02T04:08:53.486Z,100310.16
2023-02-02T04:11:20.273Z,100310.97
2023-02-02T04:13:47.071Z,100316.84
2023-02-02T04:16:14.132Z,100326.09
2023-02-02T04:18:41.002Z,100323.56
2023-02-02T04:21:08.864Z,100318.53
2023-02-02T04:23:36.266Z,100319.38
2023-02-02T04:26:03.789Z,100325.28
2023-02-02T04:28:30.644Z,100326.16
2023-02-02T04:30:57.592Z,100317.75
2023-02-02T04:33:27.073Z,100319.41
2023-02-02T04:35:54.331Z,100325.28
2023-02-02T04:38:21.447Z,100323.63
2023-02-02T04:40:48.812Z,100332.06
2023-02-02T04:43:15.805Z,100329.53
2023-02-02T04:45:42.633Z,100346.41
2023-02-02T04:48:09.936Z,100338.84
2023-02-02T04:50:36.663Z,100343.88
2023-02-02T04:53:05.019Z,100349.78
2023-02-02T04:55:36.139Z,100358.22
2023-02-02T04:58:02.849Z,100355.69
2023-02-02T05:00:29.606Z,100350.59
2023-02-02T05:02:56.306Z,100352.31
2023-02-02T05:05:23.490Z,100340.47
2023-02-02T05:07:50.458Z,100352.31
2023-02-02T05:10:17.632Z,100347.22
2023-02-02T05:12:44.322Z,100345.53
2023-02-02T05:15:11.441Z,100351.44
2023-02-02T05:17:38.184Z,100354.81
2023-02-02T05:20:05.330Z,100359.06
2023-02-02T05:22:32.091Z,100355.66
2023-02-02T05:24:58.789Z,100353.97
2023-02-02T05:27:25.542Z,100350.56
2023-02-02T05:29:52.322Z,100350.56
2023-02-02T05:32:19.128Z,100345.50
2023-02-02T05:34:45.950Z,100341.28
2023-02-02T05:37:12.630Z,100346.31
2023-02-02T05:39:39.386Z,100354.72
2023-02-02T05:42:06.166Z,100345.44
2023-02-02T05:44:32.902Z,100358.94
2023-02-02T05:46:59.667Z,100347.09
2023-02-02T05:49:26.535Z,100342.88
2023-02-02T05:51:57.465Z,100332.75
2023-02-02T05:54:24.880Z,100336.94
2023-02-02T05:56:54.527Z,100333.56
2023-02-02T05:59:21.908Z,100346.22
2023-02-02T06:01:49.296Z,100346.19
2023-02-02T06:04:16.731Z,100361.38
2023-02-02T06:06:43.955Z,100363.03
2023-02-02T06:09:10.859Z,100353.78
2023-02-02T06:11:39.316Z,100354.59
2023-02-02T06:14:06.744Z,100354.59
2023-02-02T06:16:33.466Z,100355.41
2023-02-02T06:19:00.192Z,100352.88
2023-02-02T06:21:27.065Z,100358.75
2023-02-02T06:23:54.916Z,100377.28
2023-02-02T06:26:21.659Z,100387.38
2023-02-02T06:28:51.908Z,100385.72
2023-02-02T06:31:19.777Z,100383.19
2023-02-02T06:33:48.320Z,100387.38
2023-02-02T06:36:15.127Z,100379.78
2023-02-02T06:38:41.822Z,100377.25
2023-02-02T06:41:08.595Z,100377.19
2023-02-02T06:43:35.371Z,100371.28
2023-02-02T06:46:02.323Z,100373.78
2023-02-02T06:48:29.042Z,100371.19
2023-02-02T06:50:59.715Z,100381.31
2023-02-02T06:53:27.317Z,100384.63
2023-02-02T06:56:06.395Z,100390.56
2023-02-02T06:58:34.479Z,100382.91
2023-02-02T07:01:04.380Z,100388.81
2023-02-02T07:03:32.161Z,100383.78
2023-02-02T07:05:59.032Z,100388.81
2023-02-02T07:08:26.161Z,100397.22
2023-02-02T07:11:12.481Z,100398.06
2023-02-02T07:13:39.618Z,100393.81
2023-02-02T07:16:07.916Z,100397.19
2023-02-02T07:18:36.876Z,100397.16
2023-02-02T07:21:03.813Z,100398.84
2023-02-02T07:23:32.571Z,100409.84
2023-02-02T07:26:08.188Z,100414.94
2023-02-02T07:28:35.905Z,100404.84
2023-02-02T07:31:14.710Z,100409.94
2023-02-02T07:33:43.487Z,100407.41
2023-02-02T07:36:12.641Z,100404.88
2023-02-02T07:38:39.367Z,100421.81
2023-02-02T07:41:06.212Z,100424.38
2023-02-02T07:43:33.384Z,100418.47
2023-02-02T07:46:04.312Z,100407.50
2023-02-02T07:48:31.379Z,100421.88
2023-02-02T07:51:08.210Z,100413.44
2023-02-02T07:53:35.587Z,100413.47
2023-02-02T07:56:28.109Z,100417.72
2023-02-02T07:58:57.004Z,100420.25
2023-02-02T08:01:26.929Z,100414.38
2023-02-02T08:03:56.559Z,100410.22
2023-02-02T08:06:31.976Z,100420.34
2023-02-02T08:09:00.709Z,100422.06
2023-02-02T08:11:28.856Z,100417.84
2023-02-02T08:14:00.104Z,100420.41
2023-02-02T08:16:28.845Z,100423.81
2023-02-02T08:18:56.111Z,100422.19
2023-02-02T08:21:23.081Z,100426.38
2023-02-02T08:23:51.771Z,100432.31
2023-02-02T08:26:25.984Z,100445.84
2023-02-02T08:28:57.529Z,100449.25
2023-02-02T08:31:31.768Z,100451.78
2023-02-02T08:33:59.215Z,100455.19
2023-02-02T08:36:30.469Z,100468.69
2023-02-02T08:39:07.013Z,100471.22
2023-02-02T08:41:34.534Z,100461.97
2023-02-02T08:44:01.323Z,100456.06
2023-02-02T08:46:28.158Z,100458.66
2023-02-02T08:48:54.983Z,100466.25
2023-02-02T08:51:21.809Z,100478.09
2023-02-02T08:53:48.643Z,100482.38
2023-02-02T08:56:20.164Z,100482.44
2023-02-02T08:58:51.769Z,100487.53
2023-02-02T09:01:23.329Z,100490.09
2023-02-02T09:04:04.929Z,100495.25
2023-02-02T09:06:36.314Z,100481.78
2023-02-02T09:09:05.359Z,100481.84
2023-02-02T09:11:32.895Z,100490.34
2023-02-02T09:14:06.268Z,100495.50
2023-02-02T09:16:35.224Z,100496.41
2023-02-02T09:19:02.659Z,100487.19
2023-02-02T09:21:29.488Z,100498.22
2023-02-02T09:23:56.549Z,100511.75
2023-02-02T09:26:26.575Z,100507.56
2023-02-02T09:28:57.622Z,100522.78
2023-02-02T09:31:25.890Z,100513.53
2023-02-02T09:33:52.805Z,100519.44
2023-02-02T09:36:22.951Z,100540.56
2023-02-02T09:38:51.322Z,100548.16
2023-02-02T09:41:37.262Z,100553.25
2023-02-02T09:44:22.819Z,100562.56
2023-02-02T09:47:07.438Z,100555.78
2023-02-02T09:49:57.161Z,100551.56
2023-02-02T09:52:56.764Z,100558.34
2023-02-02T09:56:05.394Z,100554.16
2023-02-02T09:58:41.434Z,100560.88
2023-02-02T10:01:17.612Z,100574.44
2023-02-02T10:04:22.131Z,100573.63
2023-02-02T10:06:53.807Z,100579.56
2023-02-02T10:09:41.974Z,100596.50
2023-02-02T10:12:36.095Z,100596.50
2023-02-02T10:15:32.579Z,100599.88
2023-02-02T10:18:23.110Z,100602.41
2023-02-02T10:21:18.901Z,100621.78
2023-02-02T10:23:46.109Z,100620.97
2023-02-02T10:26:37.813Z,100627.75
2023-02-02T10:29:22.430Z,100621.03
2023-02-02T10:32:42.478Z,100629.56
2023-02-02T10:35:42.217Z,100618.59
2023-02-02T10:38:22.752Z,100614.41
2023-02-02T10:41:10.791Z,100608.59
2023-02-02T10:44:21.247Z,100612.84
2023-02-02T10:46:57.733Z,100616.28
2023-02-02T10:49:41.136Z,100618.91
2023-02-02T10:52:18.129Z,100617.28
2023-02-02T10:55:04.458Z,100620.72
2023-02-02T10:57:49.080Z,100610.63
2023-02-02T11:00:35.137Z,100605.63
2023-02-02T11:03:04.670Z,100613.31
2023-02-02T11:05:50.658Z,100613.41
2023-02-02T11:08:29.948Z,100610.94
2023-02-02T11:11:02.494Z,100608.53
2023-02-02T11:13:40.574Z,100615.41
2023-02-02T11:16:16.538Z,100612.03
2023-02-02T11:18:44.887Z,100601.94
2023-02-02T11:21:31.832Z,100611.31
2023-02-02T11:24:19.221Z,100602.00
2023-02-02T11:26:50.285Z,100602.06
2023-02-02T11:29:43.389Z,100613.13
2023-02-02T11:32:33.209Z,100615.72
2023-02-02T11:35:20.745Z,100624.25
2023-02-02T11:38:02.998Z,100620.91
2023-02-02T11:40:34.269Z,100626.91
2023-02-02T11:43:15.050Z,100621.06
2023-02-02T11:45:45.319Z,100610.88
2023-02-02T11:48:20.371Z,100612.63
2023-02-02T11:50:53.572Z,100607.56
2023-02-02T11:53:23.938Z,100604.22
2023-02-02T11:55:52.693Z,100600.88
2023-02-02T11:58:29.256Z,100599.16
2023-02-02T12:01:03.768Z,100594.06
2023-02-02T12:03:48.737Z,100586.44
2023-02-02T12:06:21.213Z,100584.78
2023-02-02T12:08:48.580Z,100590.69
2023-02-02T12:11:39.587Z,100578.00
2023-02-02T12:14:31.749Z,100575.47
2023-02-02T12:17:29.942Z,100572.97
2023-02-02T12:20:24.030Z,100574.69
2023-02-02T12:23:10.901Z,100573.84
2023-02-02T12:26:05.472Z,100568.78
2023-02-02T12:29:05.990Z,100572.16
2023-02-02T12:31:48.031Z,100567.09
2023-02-02T12:34:54.983Z,100561.19
2023-02-02T12:37:45.258Z,100551.84
2023-02-02T12:40:30.406Z,100554.38
2023-02-02T12:43:23.607Z,100551.84
2023-02-02T12:45:59.617Z,100559.47
2023-02-02T12:49:03.142Z,100562.03
2023-02-02T12:52:05.938Z,100556.91
2023-02-02T12:55:02.154Z,100551.00
2023-02-02T12:58:09.106Z,100551.00
2023-02-02T13:00:44.916Z,100552.69
2023-02-02T13:03:33.076Z,100551.00
2023-02-02T13:06:37.727Z,100551.84
2023-02-02T13:09:27.399Z,100551.84
2023-02-02T13:12:09.020Z,100552.72
2023-02-02T13:14:49.438Z,100557.75
2023-02-02T13:17:43.866Z,100540.81
2023-02-02T13:20:43.636Z,100544.19
2023-02-02T13:23:26.850Z,100557.75
2023-02-02T13:26:12.820Z,100553.53
2023-02-02T13:29:18.884Z,100545.03
2023-02-02T13:31:59.840Z,100544.19
2023-02-02T13:34:42.910Z,100541.63
2023-02-02T13:37:32.095Z,100550.13
2023-02-02T13:40:31.979Z,100552.66
2023-02-02T13:43:39.794Z,100556.03
2023-02-02T13:46:39.144Z,100561.16
2023-02-02T13:49:29.120Z,100547.56
2023-02-02T13:52:05.879Z,100553.50
2023-02-02T13:55:16.519Z,100539.94
2023-02-02T13:58:27.609Z,100544.19
2023-02-02T14:01:02.678Z,100538.22
2023-02-02T14:04:04.431Z,100541.63
2023-02-02T14:07:01.872Z,100536.53
2023-02-02T14:09:37.454Z,100535.69
2023-02-02T14:12:11.551Z,100552.66
2023-02-02T14:14:46.093Z,100562.88
2023-02-02T14:17:19.296Z,100566.28
2023-02-02T14:19:54.984Z,100564.59
2023-02-02T14:22:45.246Z,100565.44
2023-02-02T14:25:33.323Z,100559.50
2023-02-02T14:28:10.167Z,100553.56
2023-02-02T14:30:38.984Z,100555.22
2023-02-02T14:33:20.804Z,100557.78
2023-02-02T14:35:47.420Z,100552.69
2023-02-02T14:38:52.811Z,100551.84
2023-02-02T14:42:16.243Z,100547.59
2023-02-02T14:45:10.601Z,100550.16
2023-02-02T14:47:52.371Z,100552.69
2023-02-02T14:50:40.553Z,100546.75
2023-02-02T14:53:26.906Z,100550.97
2023-02-02T14:56:05.992Z,100566.25
2023-02-02T14:58:46.841Z,100570.50
2023-02-02T15:01:25.393Z,100573.03
2023-02-02T15:04:25.218Z,100576.41
2023-02-02T15:06:53.838Z,100578.97
2023-02-02T15:09:20.660Z,100584.91
2023-02-02T15:12:38.575Z,100582.34
2023-02-02T15:15:29.856Z,100597.59
2023-02-02T15:18:17.731Z,100590.81
2023-02-02T15:20:50.829Z,100590.81
2023-02-02T15:23:44.600Z,100597.56
2023-02-02T15:26:28.048Z,100604.34
2023-02-02T15:29:01.391Z,100600.09
2023-02-02T15:31:45.322Z,100598.38
2023-02-02T15:34:28.063Z,100611.09
2023-02-02T15:37:00.049Z,100607.69
2023-02-02T15:39:41.674Z,100608.53
2023-02-02T15:42:50.649Z,100609.38
2023-02-02T15:45:48.058Z,100615.28
2023-02-02T15:48:22.557Z,100611.88
2023-02-02T15:50:55.314Z,100613.59
2023-02-02T15:53:43.864Z,100603.38
2023-02-02T15:56:25.644Z,100624.50
2023-02-02T15:58:56.038Z,100621.94
2023-02-02T16:01:25.643Z,100615.97
2023-02-02T16:04:19.956Z,100628.66
2023-02-02T16:06:48.860Z,100625.25
2023-02-02T16:09:32.691Z,100629.47
2023-02-02T16:12:01.465Z,100628.59
2023-02-02T16:14:29.003Z,100632.81
2023-02-02T16:16:55.714Z,100636.16
2023-02-02T16:19:25.849Z,100643.78
2023-02-02T16:22:04.061Z,100636.97
2023-02-02T16:24:36.019Z,100640.34
2023-02-02T16:27:08.263Z,100638.63
2023-02-02T16:29:35.627Z,100655.53
2023-02-02T16:32:04.199Z,100649.59
2023-02-02T16:34:40.475Z,100645.31
2023-02-02T16:37:23.179Z,100652.91
2023-02-02T16:39:50.067Z,100640.16
2023-02-02T16:42:33.411Z,100652.88
2023-02-02T16:45:01.282Z,100652.84
2023-02-02T16:47:27.935Z,100659.59
2023-02-02T16:50:29.921Z,100657.88
2023-02-02T16:53:03.688Z,100651.06
2023-02-02T16:55:47.870Z,100655.31
2023-02-02T16:58:22.061Z,100660.31
2023-02-02T17:01:14.943Z,100664.50
2023-02-02T17:03:55.460Z,100663.59
2023-02-02T17:06:42.145Z,100672.03
2023-02-02T17:09:36.375Z,100673.69
2023-02-02T17:12:35.165Z,100677.03
2023-02-02T17:15:34.398Z,100676.19
2023-02-02T17:18:04.082Z,100677.88
2023-02-02T17:20:32.431Z,100675.38
2023-02-02T17:23:04.346Z,100677.03
2023-02-02T17:25:52.254Z,100689.75
2023-02-02T17:28:22.169Z,100690.63
2023-02-02T17:31:11.912Z,100706.72
2023-02-02T17:33:39.597Z,100707.56
2023-02-02T17:36:07.002Z,100692.34
2023-02-02T17:38:34.064Z,100697.44
2023-02-02T17:41:03.638Z,100698.31
2023-02-02T17:43:32.572Z,100701.69
2023-02-02T17:46:00.222Z,100690.72
2023-02-02T17:48:26.961Z,100689.06
2023-02-02T17:50:53.695Z,100701.69
2023-02-02T17:53:22.145Z,100712.72
2023-02-02T17:55:50.288Z,100723.72
2023-02-02T17:58:18.005Z,100707.66
2023-02-02T18:00:49.583Z,100729.63
2023-02-02T18:03:30.529Z,100727.09
2023-02-02T18:06:00.476Z,100734.72
2023-02-02T18:08:28.458Z,100734.72
2023-02-02T18:10:55.238Z,100735.56
2023-02-02T18:13:23.558Z,100738.94
2023-02-02T18:15:52.745Z,100731.34
2023-02-02T18:18:19.930Z,100743.22
2023-02-02T18:20:50.007Z,100741.53
2023-02-02T18:23:18.526Z,100739.84
2023-02-02T18:25:45.614Z,100742.41
2023-02-02T18:28:17.237Z,100742.41
2023-02-02T18:30:46.774Z,100738.19
2023-02-02T18:33:17.234Z,100738.19
2023-02-02T18:35:46.085Z,100737.38
2023-02-02T18:38:14.483Z,100722.09
2023-02-02T18:40:41.485Z,100722.97
2023-02-02T18:43:08.285Z,100713.66
2023-02-02T18:45:35.884Z,100727.22
2023-02-02T18:48:02.718Z,100715.34
2023-02-02T18:50:29.487Z,100723.81
2023-02-02T18:52:56.799Z,100714.47
2023-02-02T18:55:24.384Z,100727.13
2023-02-02T18:57:51.358Z,100716.97
2023-02-02T19:00:19.179Z,100722.88
2023-02-02T19:02:47.101Z,100714.38
2023-02-02T19:05:32.886Z,100715.22
2023-02-02T19:07:59.671Z,100713.53
2023-02-02T19:10:27.653Z,100714.38
2023-02-02T19:13:06.585Z,100719.44
2023-02-02T19:15:37.723Z,100738.88
2023-02-02T19:18:15.304Z,100734.66
2023-02-02T19:20:43.063Z,100725.34
2023-02-02T19:23:20.916Z,100738.03
2023-02-02T19:25:56.465Z,100732.13
2023-02-02T19:28:25.243Z,100738.88
2023-02-02T19:31:01.873Z,100743.94
2023-02-02T19:33:46.410Z,100743.94
2023-02-02T19:36:31.572Z,100740.56
2023-02-02T19:39:14.146Z,100745.63
2023-02-02T19:41:42.851Z,100735.47
2023-02-02T19:44:23.847Z,100738.81
2023-02-02T19:46:52.877Z,100740.50
2023-02-02T19:49:34.442Z,100734.56
2023-02-02T19:52:04.355Z,100742.13
2023-02-02T19:54:40.883Z,100742.13
2023-02-02T19:57:31.224Z,100737.91
2023-02-02T20:00:00.873Z,100739.56
2023-02-02T20:03:04.954Z,100742.09
2023-02-02T20:05:44.956Z,100735.31
2023-02-02T20:08:39.685Z,100723.41
2023-02-02T20:11:32.368Z,100731.00
2023-02-02T20:14:19.022Z,100738.59
2023-02-02T20:16:51.785Z,100724.19
2023-02-02T20:19:29.434Z,100735.19
2023-02-02T20:21:57.092Z,100717.47
2023-02-02T20:24:37.366Z,100719.97
2023-02-02T20:27:23.991Z,100720.03
2023-02-02T20:29:54.108Z,100724.22
2023-02-02T20:32:23.051Z,100723.41
2023-02-02T20:34:51.359Z,100717.50
2023-02-02T20:37:31.759Z,100730.25
2023-02-02T20:40:03.996Z,100720.09
2023-02-02T20:42:30.819Z,100727.72
2023-02-02T20:44:58.275Z,100732.78
2023-02-02T20:47:25.433Z,100730.25
2023-02-02T20:49:54.811Z,100741.31
2023-02-02T20:52:23.632Z,100721.81
2023-02-02T20:54:52.401Z,100722.69
2023-02-02T20:57:19.499Z,100732.84
2023-02-02T20:59:46.396Z,100733.69
2023-02-02T21:02:19.300Z,100734.56
2023-02-02T21:04:48.013Z,100728.63
2023-02-02T21:07:17.770Z,100732.03
2023-02-02T21:09:45.859Z,100737.09
2023-02-02T21:12:13.280Z,100737.94
2023-02-02T21:14:40.708Z,100729.47
2023-02-02T21:17:17.407Z,100742.13
2023-02-02T21:20:13.089Z,100743.81
2023-02-02T21:22:49.468Z,100740.38
2023-02-02T21:25:30.521Z,100731.84
2023-02-02T21:32:22.313Z,100760.53
2023-02-02T21:36:09.811Z,100764.72
2023-02-02T21:38:36.903Z,100772.28
2023-02-02T21:41:13.986Z,100779.03
2023-02-02T21:43:42.247Z,100775.66
2023-02-02T21:46:19.973Z,100779.03
2023-02-02T21:48:48.345Z,100779.88
2023-02-02T21:51:37.217Z,100783.28
2023-02-02T21:54:27.935Z,100782.38
2023-02-02T21:56:55.459Z,100774.75
2023-02-02T21:59:28.488Z,100776.47
2023-02-02T22:01:55.330Z,100749.38
2023-02-02T22:04:28.514Z,100765.44
2023-02-02T22:07:14.062Z,100776.41
2023-02-02T22:09:44.999Z,100769.66
2023-02-02T22:12:20.488Z,100762.88
2023-02-02T22:14:50.978Z,100773.84
2023-02-02T22:17:34.205Z,100778.09
2023-02-02T22:20:17.631Z,100785.69
2023-02-02T22:22:50.327Z,100780.63
2023-02-02T22:25:17.085Z,100774.72
2023-02-02T22:27:57.704Z,100772.19
2023-02-02T22:30:32.369Z,100771.31
2023-02-02T22:32:59.457Z,100773.84
2023-02-02T22:35:26.342Z,100778.09
2023-02-02T22:37:53.243Z,100769.66
2023-02-02T22:40:23.978Z,100775.63
2023-02-02T22:42:53.450Z,100774.75
2023-02-02T22:45:20.884Z,100776.47
2023-02-02T22:47:49.092Z,100771.38
2023-02-02T22:50:22.846Z,100771.41
2023-02-02T22:52:49.840Z,100772.22
2023-02-02T22:55:17.284Z,100777.28
2023-02-02T22:57:44.318Z,100775.63
2023-02-02T23:00:15.842Z,100781.56
2023-02-02T23:02:43.334Z,100788.31
2023-02-02T23:05:15.212Z,100775.66
2023-02-02T23:07:45.592Z,100775.66
2023-02-02T23:10:16.230Z,100774.81
2023-02-02T23:12:43.580Z,100774.84
2023-02-02T23:15:11.750Z,100768.94
2023-02-02T23:17:38.558Z,100777.38
2023-02-02T23:20:10.162Z,100783.28
2023-02-02T23:22:36.963Z,100756.19
2023-02-02T23:25:04.772Z,100756.25
2023-02-02T23:27:32.029Z,100763.84
2023-02-02T23:29:58.771Z,100774.03
2023-02-02T23:32:25.538Z,100769.78
2023-02-02T23:34:52.306Z,100762.16
2023-02-02T23:37:19.214Z,100766.41
2023-02-02T23:39:45.977Z,100758.81
2023-02-02T23:42:13.050Z,100752.91
2023-02-02T23:44:40.171Z,100747.78
2023-02-02T23:47:07.257Z,100760.53
2023-02-02T23:49:34.921Z,100745.28
2023-02-02T23:52:01.938Z,100761.38
2023-02-02T23:54:29.809Z,100747.84
2023-02-02T23:56:57.322Z,100759.72
2023-02-02T23:59:24.316Z,100739.41
